Time;durP1;ratioP1;P1;durP2;ratioP2;P2;SDS_P1;SDS_P2;PMS_P1;PMS_P2;Temp;Humidity;BMP_temperature;BMP_pressure;BME280_temperature;BME280_humidity;BME280_pressure;Samples;Min_cycle;Max_cycle;Signal;HPM_P1;HPM_P2
2023/06/13 00:08:49;;;;;;;5.10;3.00;;;21.40;1.00;;;;;;20648347;28;20038;-46
2023/06/13 00:19:11;;;;;;;5.25;2.80;;;21.10;1.00;;;;;;20647587;28;20042;-46
2023/06/13 00:29:33;;;;;;;6.32;2.97;;;21.00;1.00;;;;;;20651124;28;20030;-46
2023/06/13 00:39:54;;;;;;;4.95;2.83;;;20.90;1.00;;;;;;20645194;28;20082;-46
2023/06/13 00:50:16;;;;;;;5.35;3.10;;;20.70;1.00;;;;;;20643911;28;20283;-46
2023/06/13 01:00:39;;;;;;;5.13;3.10;;;20.50;1.00;;;;;;20655969;28;20084;-46
2023/06/13 01:11:12;;;;;;;4.30;2.72;;;20.30;1.00;;;;;;20660202;28;20072;-46
2023/06/13 01:21:35;;;;;;;6.03;2.60;;;20.10;1.00;;;;;;20660569;28;20045;-46
2023/06/13 01:31:58;;;;;;;4.05;2.50;;;19.90;1.00;;;;;;20650732;28;20061;-46
2023/06/13 01:42:19;;;;;;;4.38;2.80;;;19.70;1.00;;;;;;20655576;28;20046;-46
2023/06/13 01:53:02;;;;;;;5.60;3.33;;;19.40;1.00;;;;;;20657040;28;20081;-46
2023/06/13 02:03:24;;;;;;;7.43;3.08;;;19.30;1.00;;;;;;20652800;28;20405;-46
2023/06/13 02:13:46;;;;;;;4.13;2.78;;;19.20;1.00;;;;;;20655591;28;20049;-46
2023/06/13 02:24:07;;;;;;;3.78;2.50;;;19.20;1.00;;;;;;20654482;28;20046;-46
2023/06/13 02:34:28;;;;;;;6.72;3.47;;;19.00;1.00;;;;;;20651952;28;20084;-47
2023/06/13 02:44:49;;;;;;;5.55;3.33;;;18.80;1.00;;;;;;20654666;28;20574;-46
2023/06/13 02:55:11;;;;;;;5.63;3.10;;;18.70;1.00;;;;;;20654637;28;20038;-46
2023/06/13 03:05:32;;;;;;;6.03;3.67;;;18.60;1.00;;;;;;20650324;28;20303;-46
2023/06/13 03:15:57;;;;;;;5.57;3.13;;;18.50;1.00;;;;;;20650377;28;20046;-46
2023/06/13 03:26:19;;;;;;;4.07;2.80;;;18.40;1.00;;;;;;20651280;28;20052;-46
2023/06/13 03:36:43;;;;;;;6.88;3.65;;;18.10;1.00;;;;;;20646960;28;20691;-46
2023/06/13 03:47:06;;;;;;;6.30;2.92;;;18.00;1.00;;;;;;20647562;28;20668;-46
2023/06/13 03:57:30;;;;;;;6.15;3.20;;;18.00;1.00;;;;;;20649817;28;20596;-46
2023/06/13 04:07:54;;;;;;;4.65;3.15;;;17.90;1.00;;;;;;20644745;28;20064;-46
2023/06/13 04:18:17;;;;;;;8.23;3.40;;;17.80;1.00;;;;;;20641827;28;20037;-46
2023/06/13 04:28:38;;;;;;;4.93;3.38;;;17.80;1.00;;;;;;20651354;28;20044;-46
2023/06/13 04:39:06;;;;;;;7.93;3.92;;;17.80;1.00;;;;;;20662841;28;20054;-46
2023/06/13 04:49:27;;;;;;;6.03;3.50;;;17.90;1.00;;;;;;20660442;28;20034;-46
2023/06/13 04:59:49;;;;;;;5.47;3.33;;;18.10;1.00;;;;;;20659205;28;20117;-46
2023/06/13 05:10:10;;;;;;;7.00;3.58;;;18.20;1.00;;;;;;20655170;28;20168;-46
2023/06/13 05:20:33;;;;;;;6.85;4.00;;;18.50;1.00;;;;;;20665020;28;20504;-46
2023/06/13 05:30:54;;;;;;;7.13;3.47;;;18.70;1.00;;;;;;20671890;28;20391;-46
2023/06/13 05:41:15;;;;;;;6.50;3.63;;;19.10;1.00;;;;;;20660450;28;20358;-46
2023/06/13 05:51:37;;;;;;;6.45;3.80;;;19.30;1.00;;;;;;20673355;28;20781;-46
2023/06/13 06:01:58;;;;;;;5.63;3.70;;;19.70;1.00;;;;;;20661825;28;20049;-46
2023/06/13 06:12:19;;;;;;;5.65;3.30;;;19.90;1.00;;;;;;20675319;28;21325;-46
2023/06/13 06:22:40;;;;;;;6.82;3.67;;;20.30;1.00;;;;;;20658302;28;20034;-46
2023/06/13 06:33:02;;;;;;;5.13;3.50;;;20.70;1.00;;;;;;20648517;28;20065;-46
2023/06/13 06:43:23;;;;;;;5.10;3.35;;;21.00;1.00;;;;;;20651967;28;20049;-47
2023/06/13 06:53:45;;;;;;;6.40;3.03;;;21.40;1.00;;;;;;20664811;28;20045;-46
2023/06/13 07:04:06;;;;;;;7.75;3.38;;;21.50;1.00;;;;;;20650325;28;20049;-47
2023/06/13 07:14:27;;;;;;;5.70;3.38;;;22.10;1.00;;;;;;20652922;28;20518;-47
2023/06/13 07:24:49;;;;;;;7.65;3.40;;;22.50;1.00;;;;;;20653694;28;20330;-46
2023/06/13 07:35:12;;;;;;;6.20;3.20;;;22.90;1.00;;;;;;20650085;28;20041;-47
2023/06/13 07:45:33;;;;;;;4.32;2.83;;;23.20;1.00;;;;;;20648304;28;20050;-47
2023/06/13 07:55:55;;;;;;;4.35;3.25;;;23.50;1.00;;;;;;20655375;28;20049;-47
2023/06/13 08:06:17;;;;;;;5.45;2.95;;;23.90;1.00;;;;;;20636287;28;20038;-46
2023/06/13 08:16:38;;;;;;;8.63;3.38;;;24.30;1.00;;;;;;20677417;28;20498;-47
2023/06/13 08:27:00;;;;;;;4.95;3.30;;;24.70;1.00;;;;;;20666551;28;20045;-47
2023/06/13 08:37:21;;;;;;;5.57;3.58;;;25.00;1.00;;;;;;20663654;28;20049;-46
2023/06/13 08:47:46;;;;;;;10.05;3.53;;;25.40;1.00;;;;;;20670150;28;20048;-46
2023/06/13 08:58:11;;;;;;;7.57;3.53;;;25.70;1.00;;;;;;20686930;28;20038;-47
2023/06/13 09:08:34;;;;;;;6.30;3.38;;;25.80;1.00;;;;;;20670614;28;20796;-46
2023/06/13 09:18:56;;;;;;;6.35;3.50;;;26.00;1.00;;;;;;20654144;28;20046;-46
2023/06/13 09:29:17;;;;;;;7.40;3.30;;;26.20;1.00;;;;;;20664809;28;20545;-47
2023/06/13 09:39:50;;;;;;;6.13;3.53;;;26.40;1.00;;;;;;20659812;28;20410;-47
2023/06/13 09:50:11;;;;;;;7.40;3.28;;;26.70;1.00;;;;;;20641864;28;20038;-47
2023/06/13 10:00:34;;;;;;;8.70;3.53;;;26.90;1.00;;;;;;20663750;28;20046;-47
2023/06/13 10:10:59;;;;;;;4.57;3.05;;;27.20;1.00;;;;;;20643831;28;20418;-47
2023/06/13 10:21:25;;;;;;;11.75;3.60;;;27.30;1.00;;;;;;20651299;28;20034;-47
2023/06/13 10:32:05;;;;;;;6.60;3.33;;;27.30;1.00;;;;;;20666750;28;20056;-47
2023/06/13 10:42:36;;;;;;;6.68;3.35;;;27.30;1.00;;;;;;20624227;28;20037;-47
2023/06/13 10:52:57;;;;;;;4.25;3.10;;;27.60;1.00;;;;;;20648106;28;20338;-47
2023/06/13 11:03:18;;;;;;;5.85;3.05;;;27.80;1.00;;;;;;20645733;28;20042;-47
2023/06/13 11:13:43;;;;;;;5.72;3.15;;;28.10;1.00;;;;;;20634087;28;20453;-47
2023/06/13 11:24:04;;;;;;;5.70;3.20;;;28.20;1.00;;;;;;20655380;28;20461;-47
2023/06/13 11:34:42;;;;;;;5.53;3.03;;;28.70;1.00;;;;;;20677078;28;20049;-47
2023/06/13 11:45:04;;;;;;;7.40;3.80;;;28.60;1.00;;;;;;20651698;28;20088;-47
2023/06/13 11:55:26;;;;;;;4.55;3.35;;;28.80;1.00;;;;;;20644243;28;20035;-47
2023/06/13 12:05:48;;;;;;;4.47;3.17;;;28.70;1.00;;;;;;20658612;28;20034;-47
2023/06/13 12:16:09;;;;;;;7.57;3.78;;;28.70;1.00;;;;;;20665623;28;20859;-47
2023/06/13 12:26:33;;;;;;;6.00;3.60;;;28.90;1.00;;;;;;20652563;28;20080;-47
2023/06/13 12:37:13;;;;;;;6.05;3.38;;;29.00;1.00;;;;;;20650602;28;20713;-47
2023/06/13 12:47:34;;;;;;;5.20;3.20;;;29.00;1.00;;;;;;20660191;28;20054;-46
2023/06/13 12:57:56;;;;;;;5.90;3.42;;;29.00;1.00;;;;;;20655901;28;20073;-47
2023/06/13 13:08:18;;;;;;;4.95;3.25;;;28.90;1.00;;;;;;20669201;28;20042;-47
2023/06/13 13:18:39;;;;;;;4.53;3.40;;;28.80;1.00;;;;;;20682579;28;20038;-47
2023/06/13 13:29:01;;;;;;;4.95;3.13;;;29.00;1.00;;;;;;20667479;28;20041;-47
2023/06/13 13:39:25;;;;;;;6.80;3.47;;;29.00;1.00;;;;;;20662976;28;20065;-47
2023/06/13 13:49:46;;;;;;;4.05;2.95;;;28.90;1.00;;;;;;20674683;28;20046;-46
2023/06/13 14:00:08;;;;;;;5.72;3.60;;;29.00;1.00;;;;;;20660211;28;20038;-47
2023/06/13 14:10:30;;;;;;;7.68;3.75;;;29.10;1.00;;;;;;20668833;28;20038;-47
2023/06/13 14:20:51;;;;;;;6.72;4.07;;;28.80;1.00;;;;;;20669296;28;20053;-47
2023/06/13 14:31:12;;;;;;;9.38;4.28;;;28.80;1.00;;;;;;20663794;28;20290;-47
2023/06/13 14:41:34;;;;;;;7.05;3.78;;;28.60;1.00;;;;;;20640959;28;20054;-47
2023/06/13 14:51:55;;;;;;;5.20;3.65;;;28.50;1.00;;;;;;20665210;28;20391;-47
2023/06/13 15:02:16;;;;;;;5.43;3.78;;;28.50;1.00;;;;;;20664846;28;20282;-47
2023/06/13 15:12:38;;;;;;;4.25;3.35;;;28.30;1.00;;;;;;20660551;28;20048;-46
2023/06/13 15:22:59;;;;;;;5.75;3.60;;;28.10;1.00;;;;;;20649680;28;20495;-47
2023/06/13 15:33:22;;;;;;;4.30;2.20;;;28.20;1.00;;;;;;20666095;28;20046;-46
2023/06/13 15:43:43;;;;;;;5.80;2.40;;;27.80;1.00;;;;;;20667229;28;20433;-47
2023/06/13 15:54:05;;;;;;;3.75;2.05;;;27.30;1.00;;;;;;20663235;28;20049;-46
2023/06/13 16:04:26;;;;;;;7.57;2.80;;;27.00;1.00;;;;;;20661710;28;20037;-46
2023/06/13 16:14:47;;;;;;;5.68;2.75;;;26.70;1.00;;;;;;20661416;28;20042;-46
2023/06/13 16:25:09;;;;;;;6.25;2.30;;;26.60;1.00;;;;;;20645473;28;20037;-46
2023/06/13 16:35:31;;;;;;;4.72;2.28;;;26.40;1.00;;;;;;20660254;28;20089;-46
2023/06/13 16:45:52;;;;;;;3.60;2.10;;;26.00;1.00;;;;;;20664371;28;20056;-46
2023/06/13 16:56:13;;;;;;;5.65;2.13;;;26.00;1.00;;;;;;20674800;28;20034;-46
2023/06/13 17:06:35;;;;;;;4.07;2.08;;;25.70;1.00;;;;;;20668738;28;20037;-46
2023/06/13 17:16:56;;;;;;;7.80;2.00;;;25.50;1.00;;;;;;20669216;28;20034;-47
2023/06/13 17:27:18;;;;;;;3.35;1.63;;;25.40;1.00;;;;;;20661534;28;20076;-46
2023/06/13 17:37:39;;;;;;;6.72;2.17;;;25.20;1.00;;;;;;20662923;28;20045;-46
2023/06/13 17:48:02;;;;;;;3.95;2.10;;;25.00;1.00;;;;;;20669094;28;20042;-46
2023/06/13 17:58:24;;;;;;;3.10;1.73;;;25.00;1.00;;;;;;20674331;28;20038;-46
2023/06/13 18:08:45;;;;;;;4.70;2.35;;;24.80;1.00;;;;;;20660458;28;20049;-46
2023/06/13 18:19:07;;;;;;;5.07;2.05;;;24.60;1.00;;;;;;20660746;28;20660;-46
2023/06/13 18:29:28;;;;;;;4.82;1.92;;;24.10;1.00;;;;;;20657755;28;20072;-46
2023/06/13 18:39:50;;;;;;;4.32;1.80;;;23.70;1.00;;;;;;20658166;28;20051;-46
2023/06/13 18:50:11;;;;;;;3.78;1.70;;;23.60;1.00;;;;;;20658604;28;20399;-46
2023/06/13 19:00:32;;;;;;;2.95;1.65;;;23.40;1.00;;;;;;20668453;28;20034;-46
2023/06/13 19:10:54;;;;;;;3.97;1.70;;;23.40;1.00;;;;;;20660811;28;20041;-46
2023/06/13 19:21:17;;;;;;;3.30;1.63;;;23.40;1.00;;;;;;20654952;28;20761;-46
2023/06/13 19:31:38;;;;;;;3.30;1.95;;;23.30;1.00;;;;;;20651259;28;20259;-46
2023/06/13 19:41:59;;;;;;;2.95;1.90;;;23.10;1.00;;;;;;20657475;28;20413;-46
2023/06/13 19:52:21;;;;;;;3.45;2.15;;;23.00;1.00;;;;;;20656009;28;20041;-46
2023/06/13 20:02:42;;;;;;;3.55;2.20;;;22.90;1.00;;;;;;20650102;28;20817;-46
2023/06/13 20:13:03;;;;;;;3.65;1.90;;;22.80;1.00;;;;;;20654022;28;20042;-46
2023/06/13 20:23:25;;;;;;;3.47;2.00;;;22.60;1.00;;;;;;20658224;28;20417;-46
2023/06/13 20:33:46;;;;;;;6.00;2.05;;;22.50;1.00;;;;;;20655993;28;20038;-46
2023/06/13 20:44:10;;;;;;;4.35;1.80;;;22.40;1.00;;;;;;20647547;28;20050;-46
2023/06/13 20:54:32;;;;;;;5.25;1.77;;;22.40;1.00;;;;;;20646121;28;20033;-46
2023/06/13 21:04:56;;;;;;;4.72;1.80;;;22.30;1.00;;;;;;20647887;28;20049;-46
2023/06/13 21:15:20;;;;;;;3.13;1.67;;;22.10;1.00;;;;;;20649311;28;20038;-46
2023/06/13 21:25:41;;;;;;;4.85;1.77;;;21.80;1.00;;;;;;20675110;28;20046;-46
2023/06/13 21:36:02;;;;;;;2.80;1.50;;;21.60;1.00;;;;;;20670152;28;20054;-46
2023/06/13 21:46:24;;;;;;;3.10;1.77;;;21.40;1.00;;;;;;20672459;28;20049;-46
2023/06/13 21:56:45;;;;;;;2.70;1.70;;;21.20;1.00;;;;;;20666623;28;20113;-46
2023/06/13 22:07:07;;;;;;;6.05;2.20;;;21.10;1.00;;;;;;20662749;28;20042;-46
2023/06/13 22:17:29;;;;;;;5.32;1.60;;;20.90;1.00;;;;;;20658481;28;20041;-46
2023/06/13 22:27:55;;;;;;;4.45;2.15;;;20.60;1.00;;;;;;20669712;28;20500;-46
2023/06/13 22:38:16;;;;;;;6.30;2.00;;;20.40;1.00;;;;;;20675608;28;20621;-46
2023/06/13 22:48:37;;;;;;;5.50;1.80;;;20.20;1.00;;;;;;20668676;28;20037;-46
2023/06/13 22:58:59;;;;;;;4.00;1.70;;;20.10;1.00;;;;;;20668823;28;20490;-46
2023/06/13 23:09:20;;;;;;;3.53;1.75;;;20.00;1.00;;;;;;20669439;28;20485;-46
2023/06/13 23:19:53;;;;;;;7.28;1.98;;;19.90;1.00;;;;;;20663659;28;20042;-46
2023/06/13 23:30:14;;;;;;;3.42;2.00;;;19.70;1.00;;;;;;20669663;28;20453;-46
2023/06/13 23:40:35;;;;;;;7.63;1.85;;;19.60;1.00;;;;;;20663320;28;20045;-46
2023/06/13 23:50:57;;;;;;;4.57;1.77;;;19.50;1.00;;;;;;20664616;28;20128;-46
